Time;durP1;ratioP1;P1;durP2;ratioP2;P2;SDS_P1;SDS_P2;PMS_P1;PMS_P2;Temp;Humidity;BMP_temperature;BMP_pressure;BME280_temperature;BME280_humidity;BME280_pressure;Samples;Min_cycle;Max_cycle;Signal;HPM_P1;HPM_P2
2024/02/18 00:00:52;;;;;;;19.00;5.97;;;2.60;99.90;;;;;;5016536;28;20928;-52
2024/02/18 00:03:19;;;;;;;16.07;7.53;;;2.50;99.90;;;;;;5015447;28;20297;-57
2024/02/18 00:05:46;;;;;;;18.80;6.20;;;2.60;99.90;;;;;;5009892;28;20288;-49
2024/02/18 00:08:13;;;;;;;18.70;6.17;;;2.60;99.90;;;;;;5018517;28;20265;-47
2024/02/18 00:10:41;;;;;;;16.00;6.10;;;2.60;99.90;;;;;;5008179;28;20203;-49
2024/02/18 00:13:08;;;;;;;18.13;6.00;;;2.60;99.90;;;;;;4993385;28;20207;-54
2024/02/18 00:15:35;;;;;;;13.63;5.63;;;2.70;99.90;;;;;;5014391;28;20258;-49
2024/02/18 00:18:03;;;;;;;16.20;6.30;;;2.70;99.90;;;;;;5017424;28;20212;-50
2024/02/18 00:20:29;;;;;;;13.70;6.67;;;2.60;99.90;;;;;;5004016;28;21044;-56
2024/02/18 00:22:56;;;;;;;17.07;6.17;;;2.60;99.90;;;;;;5016845;28;20255;-51
2024/02/18 00:25:23;;;;;;;15.23;5.93;;;2.70;99.90;;;;;;5010382;28;20216;-55
2024/02/18 00:27:51;;;;;;;19.67;6.73;;;2.70;99.90;;;;;;4991954;28;21017;-50
2024/02/18 00:30:18;;;;;;;15.97;5.90;;;2.70;99.90;;;;;;5016216;28;20198;-56
2024/02/18 00:32:45;;;;;;;15.37;6.37;;;2.70;99.90;;;;;;5011600;28;20199;-54
2024/02/18 00:35:12;;;;;;;14.33;5.57;;;2.80;99.90;;;;;;5008173;28;20226;-48
2024/02/18 00:37:39;;;;;;;14.40;5.47;;;2.80;99.90;;;;;;5011794;28;20868;-51
2024/02/18 00:40:07;;;;;;;14.70;5.70;;;2.90;99.90;;;;;;5018028;28;20196;-48
2024/02/18 00:42:34;;;;;;;19.77;6.07;;;2.90;99.90;;;;;;4972569;28;20737;-50
2024/02/18 00:45:02;;;;;;;14.00;5.93;;;2.90;99.90;;;;;;5013885;28;20521;-53
2024/02/18 00:47:29;;;;;;;15.50;5.97;;;2.90;99.90;;;;;;5016506;28;20192;-53
2024/02/18 00:49:56;;;;;;;21.70;6.37;;;3.00;99.90;;;;;;5005277;28;20686;-49
2024/02/18 00:52:24;;;;;;;17.57;6.27;;;3.00;99.90;;;;;;5017621;28;20198;-53
2024/02/18 00:54:51;;;;;;;14.33;6.40;;;3.00;99.90;;;;;;5016298;28;20200;-49
2024/02/18 00:57:17;;;;;;;20.40;6.30;;;3.10;99.90;;;;;;5014557;28;20254;-54
2024/02/18 00:59:44;;;;;;;15.70;5.60;;;3.10;99.90;;;;;;4994354;28;20760;-53
2024/02/18 01:02:12;;;;;;;13.03;5.07;;;3.10;99.90;;;;;;5017210;28;20326;-52
2024/02/18 01:04:39;;;;;;;17.87;6.53;;;3.10;99.90;;;;;;5005780;28;20211;-49
2024/02/18 01:07:08;;;;;;;19.23;5.87;;;3.20;99.90;;;;;;5020448;28;20208;-50
2024/02/18 01:09:36;;;;;;;13.63;5.03;;;3.20;99.90;;;;;;5012258;28;20212;-52
2024/02/18 01:12:03;;;;;;;15.37;5.03;;;3.20;99.90;;;;;;5018245;28;20262;-47
2024/02/18 01:14:30;;;;;;;17.80;6.43;;;3.20;99.90;;;;;;4994537;28;20208;-53
2024/02/18 01:16:58;;;;;;;13.70;5.43;;;3.30;99.90;;;;;;5021762;28;20254;-52
2024/02/18 01:19:26;;;;;;;13.07;4.83;;;3.30;99.90;;;;;;5017429;28;20204;-55
2024/02/18 01:21:54;;;;;;;13.47;5.30;;;3.30;99.90;;;;;;5018491;28;20940;-47
2024/02/18 01:24:21;;;;;;;15.50;5.50;;;3.30;99.90;;;;;;5022033;28;20289;-53
2024/02/18 01:26:47;;;;;;;14.23;5.63;;;3.30;99.90;;;;;;5019386;28;20214;-50
2024/02/18 01:29:14;;;;;;;12.77;5.13;;;3.30;99.90;;;;;;4997901;28;20216;-49
2024/02/18 01:31:42;;;;;;;15.83;5.50;;;3.30;99.90;;;;;;5018840;28;20196;-48
2024/02/18 01:34:09;;;;;;;12.63;5.53;;;3.40;99.90;;;;;;5023316;28;20307;-50
2024/02/18 01:36:37;;;;;;;9.43;5.07;;;3.40;99.90;;;;;;5011118;28;20211;-53
2024/02/18 01:39:04;;;;;;;15.63;5.63;;;3.40;99.90;;;;;;5023674;28;20204;-51
2024/02/18 01:41:31;;;;;;;12.33;4.77;;;3.40;99.90;;;;;;5019450;28;20196;-53
2024/02/18 01:43:58;;;;;;;12.90;4.67;;;3.40;99.90;;;;;;5021034;28;20243;-48
2024/02/18 01:46:25;;;;;;;12.53;4.77;;;3.40;99.90;;;;;;4996462;28;20770;-52
2024/02/18 01:48:53;;;;;;;17.80;5.43;;;3.40;99.90;;;;;;5021621;28;20207;-48
2024/02/18 01:51:20;;;;;;;18.43;5.23;;;3.50;99.90;;;;;;5014404;28;20200;-51
2024/02/18 01:53:49;;;;;;;12.33;5.03;;;3.50;99.90;;;;;;5010606;28;20351;-47
2024/02/18 01:56:19;;;;;;;14.97;4.63;;;3.50;99.90;;;;;;5022883;28;20446;-52
2024/02/18 01:58:46;;;;;;;17.50;5.60;;;3.50;99.90;;;;;;5019432;28;20192;-48
2024/02/18 02:01:13;;;;;;;15.00;4.57;;;3.50;99.90;;;;;;4998259;28;20670;-52
2024/02/18 02:03:41;;;;;;;12.10;4.33;;;3.60;99.90;;;;;;5020910;28;20212;-46
2024/02/18 02:06:10;;;;;;;14.37;4.60;;;3.60;99.90;;;;;;5014713;28;20645;-49
2024/02/18 02:08:37;;;;;;;9.83;4.13;;;3.60;99.90;;;;;;5012593;28;20212;-48
2024/02/18 02:11:06;;;;;;;12.07;4.50;;;3.70;99.90;;;;;;5019103;28;20207;-47
2024/02/18 02:13:33;;;;;;;14.93;4.97;;;3.70;99.90;;;;;;5015021;28;20204;-52
2024/02/18 02:16:02;;;;;;;17.80;4.77;;;3.70;99.90;;;;;;5021276;28;20224;-51
2024/02/18 02:18:28;;;;;;;11.40;3.90;;;3.70;99.90;;;;;;4995754;28;20207;-55
2024/02/18 02:20:55;;;;;;;15.13;4.37;;;3.70;99.90;;;;;;5021548;28;20262;-53
2024/02/18 02:23:22;;;;;;;8.80;4.10;;;3.70;99.90;;;;;;5012682;28;20224;-54
2024/02/18 02:25:49;;;;;;;14.73;4.33;;;3.80;99.90;;;;;;5019179;28;20208;-48
2024/02/18 02:28:23;;;;;;;13.43;4.13;;;3.80;99.90;;;;;;5021299;28;20203;-52
2024/02/18 02:30:51;;;;;;;9.50;3.53;;;3.80;99.90;;;;;;5017891;28;20204;-50
2024/02/18 02:33:18;;;;;;;10.73;4.13;;;3.80;99.90;;;;;;4995292;28;20208;-53
2024/02/18 02:35:46;;;;;;;15.03;4.33;;;3.90;99.90;;;;;;5020732;28;20212;-48
2024/02/18 02:38:13;;;;;;;12.37;3.40;;;3.90;99.90;;;;;;5023054;28;20215;-47
2024/02/18 02:40:40;;;;;;;10.03;3.20;;;3.90;99.90;;;;;;5012039;28;20188;-48
2024/02/18 02:43:07;;;;;;;12.77;3.93;;;3.90;99.90;;;;;;5022877;28;20228;-47
2024/02/18 02:45:34;;;;;;;12.30;3.80;;;3.90;99.90;;;;;;5011959;28;20297;-54
2024/02/18 02:48:02;;;;;;;16.70;4.30;;;3.90;99.90;;;;;;4998095;28;20291;-51
2024/02/18 02:50:29;;;;;;;12.23;3.20;;;4.00;99.90;;;;;;5020320;28;20195;-55
2024/02/18 02:52:56;;;;;;;13.50;3.90;;;4.00;99.90;;;;;;5021556;28;20246;-54
2024/02/18 02:55:23;;;;;;;12.73;3.07;;;4.10;99.90;;;;;;5010797;28;20532;-54
2024/02/18 02:57:51;;;;;;;9.93;2.70;;;4.10;99.90;;;;;;5021096;28;20192;-49
2024/02/18 03:00:18;;;;;;;9.83;2.67;;;4.10;99.90;;;;;;5021611;28;20279;-54
2024/02/18 03:02:45;;;;;;;10.33;2.93;;;4.20;99.90;;;;;;4987707;28;20216;-47
2024/02/18 03:05:13;;;;;;;6.10;2.40;;;4.20;99.90;;;;;;5019789;28;20224;-47
2024/02/18 03:07:40;;;;;;;11.90;2.53;;;4.20;99.90;;;;;;5015315;28;20192;-51
2024/02/18 03:10:09;;;;;;;12.03;3.00;;;4.20;99.90;;;;;;5012825;28;20208;-49
2024/02/18 03:12:36;;;;;;;7.90;2.33;;;4.30;99.90;;;;;;5018383;28;20208;-49
2024/02/18 03:15:03;;;;;;;13.03;2.70;;;4.30;99.90;;;;;;5021670;28;20220;-49
2024/02/18 03:17:30;;;;;;;9.97;2.10;;;4.30;99.90;;;;;;5011233;28;20211;-52
2024/02/18 03:19:58;;;;;;;8.30;2.23;;;4.40;99.90;;;;;;4997283;28;20623;-52
2024/02/18 03:22:26;;;;;;;6.27;1.93;;;4.40;99.90;;;;;;5020772;28;20200;-54
2024/02/18 03:24:53;;;;;;;8.67;2.23;;;4.40;99.90;;;;;;5021204;28;20188;-47
2024/02/18 03:27:20;;;;;;;8.30;2.33;;;4.50;99.90;;;;;;5012555;28;20203;-54
2024/02/18 03:29:47;;;;;;;6.30;1.93;;;4.50;99.90;;;;;;5019842;28;20258;-48
2024/02/18 03:32:14;;;;;;;3.83;1.67;;;4.50;99.90;;;;;;5021944;28;20201;-52
2024/02/18 03:34:42;;;;;;;7.60;2.63;;;4.50;99.90;;;;;;4985723;28;20199;-50
2024/02/18 03:37:09;;;;;;;4.33;1.93;;;4.50;99.90;;;;;;5022380;28;20246;-49
2024/02/18 03:39:38;;;;;;;8.17;1.87;;;4.60;99.90;;;;;;5018579;28;20254;-47
2024/02/18 03:42:05;;;;;;;8.53;2.10;;;4.60;99.90;;;;;;5014493;28;20211;-51
2024/02/18 03:44:32;;;;;;;11.67;2.17;;;4.60;99.90;;;;;;5018888;28;20305;-54
2024/02/18 03:46:59;;;;;;;8.03;2.53;;;4.60;99.90;;;;;;5020975;28;20224;-49
2024/02/18 03:49:26;;;;;;;7.00;1.83;;;4.60;99.90;;;;;;4991691;28;20618;-52
2024/02/18 03:51:53;;;;;;;7.60;2.10;;;4.60;99.90;;;;;;5020317;28;20325;-48
2024/02/18 03:54:20;;;;;;;7.27;2.10;;;4.60;99.90;;;;;;5019520;28;20219;-53
2024/02/18 03:56:48;;;;;;;5.57;2.40;;;4.60;99.90;;;;;;5010644;28;20228;-46
2024/02/18 03:59:15;;;;;;;6.67;2.20;;;4.60;99.90;;;;;;5019405;28;20208;-54
2024/02/18 04:01:41;;;;;;;6.50;2.20;;;4.70;99.90;;;;;;5017704;28;20845;-46
2024/02/18 04:04:09;;;;;;;11.80;3.30;;;4.70;99.90;;;;;;5020044;28;20223;-47
2024/02/18 04:06:35;;;;;;;10.33;2.30;;;4.70;99.90;;;;;;4992077;28;20978;-51
2024/02/18 04:09:02;;;;;;;7.03;1.67;;;4.70;99.90;;;;;;5020222;28;20266;-51
2024/02/18 04:11:29;;;;;;;9.97;2.33;;;4.70;99.90;;;;;;5011345;28;20196;-53
2024/02/18 04:13:57;;;;;;;7.20;2.40;;;4.70;99.90;;;;;;5018596;28;20281;-49
2024/02/18 04:16:24;;;;;;;7.93;2.43;;;4.70;99.90;;;;;;5015650;28;20613;-53
2024/02/18 04:18:53;;;;;;;7.03;2.47;;;4.70;99.90;;;;;;5019383;28;20255;-52
2024/02/18 04:21:20;;;;;;;7.97;2.40;;;4.70;99.90;;;;;;4991941;28;20212;-52
2024/02/18 04:23:47;;;;;;;8.10;2.70;;;4.80;99.90;;;;;;5009317;28;20216;-50
2024/02/18 04:26:14;;;;;;;14.93;2.53;;;4.80;99.90;;;;;;5015878;28;20212;-50
2024/02/18 04:28:41;;;;;;;6.37;2.50;;;4.80;99.90;;;;;;5011476;28;20208;-52
2024/02/18 04:31:09;;;;;;;10.93;2.37;;;4.80;99.90;;;;;;5014592;28;20230;-46
2024/02/18 04:33:36;;;;;;;4.17;2.40;;;4.80;99.90;;;;;;5017930;28;20200;-50
2024/02/18 04:36:03;;;;;;;12.33;2.97;;;4.80;99.90;;;;;;4996809;28;20216;-53
2024/02/18 04:38:29;;;;;;;10.30;2.50;;;4.80;99.90;;;;;;5018115;28;20616;-49
2024/02/18 04:40:56;;;;;;;6.77;2.60;;;4.80;99.90;;;;;;5017721;28;20196;-54
2024/02/18 04:43:23;;;;;;;8.90;2.80;;;4.80;99.90;;;;;;5009642;28;20212;-46
2024/02/18 04:45:50;;;;;;;8.47;2.43;;;4.80;99.90;;;;;;5017844;28;20640;-53
2024/02/18 04:48:18;;;;;;;6.27;2.43;;;4.80;99.90;;;;;;5016609;28;20204;-50
2024/02/18 04:50:45;;;;;;;10.43;2.60;;;4.80;99.90;;;;;;5019417;28;20196;-46
2024/02/18 04:53:11;;;;;;;8.17;2.77;;;4.80;99.90;;;;;;4990880;28;20192;-48
2024/02/18 04:55:38;;;;;;;8.07;2.73;;;4.80;99.90;;;;;;5020663;28;20220;-51
2024/02/18 04:58:05;;;;;;;13.10;3.33;;;4.80;99.90;;;;;;5009029;28;20246;-54
2024/02/18 05:00:32;;;;;;;8.40;4.33;;;4.80;99.90;;;;;;5013107;28;20232;-46
2024/02/18 05:03:00;;;;;;;11.10;4.10;;;4.90;99.90;;;;;;5007978;28;20243;-47
2024/02/18 05:05:28;;;;;;;7.73;4.00;;;4.90;99.90;;;;;;5016077;28;20228;-54
2024/02/18 05:07:55;;;;;;;13.80;4.10;;;4.90;99.90;;;;;;4995355;28;20212;-51
2024/02/18 05:10:22;;;;;;;12.70;4.53;;;4.90;99.90;;;;;;5016727;28;20223;-53
2024/02/18 05:12:49;;;;;;;12.47;5.70;;;5.00;99.90;;;;;;5019339;28;20195;-48
2024/02/18 05:15:15;;;;;;;16.97;5.70;;;5.00;99.90;;;;;;5010504;28;20713;-54
2024/02/18 05:17:42;;;;;;;12.87;5.50;;;5.00;99.90;;;;;;5017534;28;20188;-50
2024/02/18 05:20:10;;;;;;;15.73;5.80;;;5.00;99.90;;;;;;5019372;28;20204;-47
2024/02/18 05:22:40;;;;;;;15.03;5.80;;;5.00;99.90;;;;;;4990498;28;20964;-47
2024/02/18 05:25:07;;;;;;;20.40;7.53;;;5.10;99.90;;;;;;5019569;28;20303;-47
2024/02/18 05:27:34;;;;;;;15.13;6.17;;;5.10;99.90;;;;;;5016013;28;20936;-47
2024/02/18 05:30:01;;;;;;;14.23;7.03;;;5.10;99.90;;;;;;5009130;28;20247;-50
2024/02/18 05:32:28;;;;;;;13.10;7.53;;;5.10;99.90;;;;;;5016520;28;20255;-54
2024/02/18 05:34:55;;;;;;;18.33;7.20;;;5.10;99.90;;;;;;5019001;28;20208;-49
2024/02/18 05:37:22;;;;;;;18.80;7.30;;;5.10;99.90;;;;;;5001709;28;20204;-53
2024/02/18 05:39:50;;;;;;;16.67;6.53;;;5.10;99.90;;;;;;5011592;28;20196;-49
2024/02/18 05:42:17;;;;;;;18.10;6.47;;;5.10;99.90;;;;;;5016498;28;20204;-52
2024/02/18 05:44:46;;;;;;;19.63;7.27;;;5.10;99.90;;;;;;5008971;28;20229;-47
2024/02/18 05:47:12;;;;;;;18.23;7.67;;;5.10;99.90;;;;;;5019139;28;20199;-54
2024/02/18 05:49:39;;;;;;;19.83;6.67;;;5.10;99.90;;;;;;5016173;28;20188;-50
2024/02/18 05:52:08;;;;;;;18.57;7.20;;;5.00;99.90;;;;;;5018880;28;20200;-50
2024/02/18 05:54:35;;;;;;;21.80;8.77;;;5.10;99.90;;;;;;4988076;28;20188;-46
2024/02/18 05:57:04;;;;;;;17.73;6.97;;;5.10;99.90;;;;;;5018291;28;20290;-48
2024/02/18 05:59:31;;;;;;;17.37;7.53;;;5.10;99.90;;;;;;5016135;28;20801;-50
2024/02/18 06:01:58;;;;;;;17.00;7.73;;;5.10;99.90;;;;;;5015242;28;20211;-46
2024/02/18 06:04:25;;;;;;;15.27;8.30;;;5.10;99.90;;;;;;5016458;28;20305;-54
2024/02/18 06:06:51;;;;;;;15.47;8.80;;;5.10;99.90;;;;;;5014197;28;20219;-52
2024/02/18 06:09:19;;;;;;;21.77;8.07;;;5.10;99.90;;;;;;5004418;28;20224;-55
2024/02/18 06:11:46;;;;;;;20.50;8.07;;;5.10;99.90;;;;;;5016817;28;20204;-48
2024/02/18 06:14:15;;;;;;;19.20;8.20;;;5.20;99.90;;;;;;5021345;28;20208;-51
2024/02/18 06:16:41;;;;;;;21.47;9.33;;;5.20;99.90;;;;;;5011887;28;20223;-47
2024/02/18 06:19:08;;;;;;;17.20;8.93;;;5.20;99.90;;;;;;5022028;28;20203;-51
2024/02/18 06:21:35;;;;;;;19.30;9.43;;;5.20;99.90;;;;;;5016413;28;20269;-45
2024/02/18 06:24:02;;;;;;;24.73;10.03;;;5.30;99.90;;;;;;5014923;28;20220;-50
2024/02/18 06:26:29;;;;;;;18.97;8.93;;;5.30;99.90;;;;;;4994860;28;20305;-46
2024/02/18 06:28:56;;;;;;;21.00;9.70;;;5.30;99.90;;;;;;5023036;28;20208;-51
2024/02/18 06:31:24;;;;;;;19.60;10.03;;;5.30;99.90;;;;;;5017508;28;20210;-53
2024/02/18 06:33:51;;;;;;;24.60;10.37;;;5.30;99.90;;;;;;5014612;28;20196;-47
2024/02/18 06:36:18;;;;;;;23.67;10.67;;;5.40;99.90;;;;;;5020146;28;20220;-56
2024/02/18 06:38:45;;;;;;;28.57;12.23;;;5.40;99.90;;;;;;5015069;28;20972;-50
2024/02/18 06:41:13;;;;;;;25.10;11.10;;;5.40;99.90;;;;;;4990793;28;20540;-54
2024/02/18 06:43:40;;;;;;;29.20;11.43;;;5.40;99.90;;;;;;5015324;28;20212;-49
2024/02/18 06:46:07;;;;;;;28.70;11.57;;;5.40;99.90;;;;;;5021907;28;20224;-54
2024/02/18 06:48:35;;;;;;;26.23;11.97;;;5.40;99.90;;;;;;5010183;28;20228;-46
2024/02/18 06:51:02;;;;;;;28.10;12.70;;;5.50;99.90;;;;;;5011877;28;20200;-52
2024/02/18 06:53:30;;;;;;;31.90;13.23;;;5.50;99.90;;;;;;5016732;28;20200;-49
2024/02/18 06:55:56;;;;;;;25.37;11.70;;;5.50;99.90;;;;;;5005276;28;20274;-54
2024/02/18 06:58:23;;;;;;;29.13;13.17;;;5.60;99.90;;;;;;5008072;28;20250;-49
2024/02/18 07:00:50;;;;;;;33.60;13.93;;;5.50;99.90;;;;;;5022450;28;20283;-52
2024/02/18 07:03:17;;;;;;;34.80;13.37;;;5.60;99.90;;;;;;5006240;28;20208;-54
2024/02/18 07:05:45;;;;;;;28.97;12.97;;;5.60;99.90;;;;;;5014154;28;20215;-48
2024/02/18 07:08:12;;;;;;;28.97;12.67;;;5.60;99.90;;;;;;5015421;28;20203;-48
2024/02/18 07:10:39;;;;;;;25.93;12.60;;;5.70;99.90;;;;;;4997525;28;20207;-53
2024/02/18 07:13:07;;;;;;;24.37;12.37;;;5.70;99.90;;;;;;4987877;28;20214;-53
2024/02/18 07:15:34;;;;;;;33.17;13.43;;;5.70;99.90;;;;;;5013390;28;20231;-50
2024/02/18 07:18:01;;;;;;;32.50;14.37;;;5.70;99.90;;;;;;5014576;28;20555;-55
2024/02/18 07:20:28;;;;;;;37.00;14.07;;;5.70;99.90;;;;;;5011408;28;20208;-49
2024/02/18 07:22:57;;;;;;;26.80;12.10;;;5.80;99.90;;;;;;5010395;28;20714;-49
2024/02/18 07:25:24;;;;;;;28.23;13.57;;;5.80;99.90;;;;;;5016177;28;20228;-52
2024/02/18 07:27:52;;;;;;;36.13;14.00;;;5.80;99.90;;;;;;4987353;28;20207;-50
2024/02/18 07:30:19;;;;;;;28.87;14.33;;;5.80;99.90;;;;;;5010761;28;20296;-47
2024/02/18 07:32:46;;;;;;;32.20;14.07;;;5.80;99.90;;;;;;5010618;28;20222;-50
2024/02/18 07:35:13;;;;;;;29.60;13.03;;;5.80;99.90;;;;;;5012366;28;20278;-50
2024/02/18 07:37:40;;;;;;;29.90;13.53;;;5.90;99.90;;;;;;5013428;28;20265;-53
2024/02/18 07:40:10;;;;;;;30.23;13.63;;;5.90;99.90;;;;;;5013570;28;20615;-50
2024/02/18 07:42:38;;;;;;;33.60;11.97;;;5.90;99.90;;;;;;4996956;28;20297;-53
2024/02/18 07:45:06;;;;;;;27.47;12.73;;;5.90;99.90;;;;;;5005634;28;23331;-52
2024/02/18 07:47:33;;;;;;;27.50;13.40;;;5.90;99.90;;;;;;5015328;28;20254;-54
2024/02/18 07:50:00;;;;;;;27.80;13.50;;;6.00;99.90;;;;;;4998805;28;20329;-47
2024/02/18 07:52:27;;;;;;;25.77;13.27;;;6.00;99.90;;;;;;5020845;28;20668;-51
2024/02/18 07:54:53;;;;;;;25.33;13.73;;;6.00;99.90;;;;;;5018095;28;20246;-48
2024/02/18 07:57:22;;;;;;;27.33;13.03;;;6.00;99.90;;;;;;5015581;28;20796;-47
2024/02/18 07:59:48;;;;;;;25.97;13.57;;;6.10;99.90;;;;;;4987354;28;20219;-49
2024/02/18 08:02:15;;;;;;;27.27;13.13;;;6.10;99.90;;;;;;5013229;28;20212;-51
2024/02/18 08:04:42;;;;;;;20.97;11.67;;;6.20;99.90;;;;;;5001850;28;20269;-48
2024/02/18 08:07:09;;;;;;;28.30;12.20;;;6.20;99.90;;;;;;5013042;28;20297;-50
2024/02/18 08:09:36;;;;;;;27.93;13.07;;;6.20;99.90;;;;;;5014158;28;20298;-52
2024/02/18 08:12:02;;;;;;;29.40;12.53;;;6.20;99.90;;;;;;5015679;28;20208;-49
2024/02/18 08:14:31;;;;;;;23.40;12.10;;;6.20;99.90;;;;;;5001161;28;20200;-51
2024/02/18 08:16:58;;;;;;;22.60;12.23;;;6.30;99.90;;;;;;4998262;28;20232;-47
2024/02/18 08:19:24;;;;;;;25.03;13.33;;;6.30;99.90;;;;;;5019729;28;20191;-54
2024/02/18 08:21:51;;;;;;;25.17;12.20;;;6.30;99.90;;;;;;5004509;28;20334;-47
2024/02/18 08:24:18;;;;;;;25.03;12.67;;;6.40;99.90;;;;;;5020674;28;20642;-48
2024/02/18 08:26:45;;;;;;;28.93;12.70;;;6.40;99.90;;;;;;5019784;28;20196;-49
2024/02/18 08:29:12;;;;;;;24.63;12.83;;;6.40;99.90;;;;;;5015030;28;20644;-50
2024/02/18 08:31:40;;;;;;;24.20;13.10;;;6.50;99.90;;;;;;4985629;28;20208;-54
2024/02/18 08:34:07;;;;;;;22.83;12.57;;;6.50;99.90;;;;;;5017729;28;20192;-47
2024/02/18 08:36:34;;;;;;;25.30;12.77;;;6.60;99.90;;;;;;5011721;28;20223;-53
2024/02/18 08:39:00;;;;;;;29.80;13.27;;;6.60;99.90;;;;;;5011429;28;20250;-48
2024/02/18 08:41:27;;;;;;;26.70;13.17;;;6.70;99.90;;;;;;5019318;28;20298;-52
2024/02/18 08:43:54;;;;;;;24.57;12.10;;;6.70;99.90;;;;;;5013048;28;20211;-49
2024/02/18 08:46:21;;;;;;;21.60;12.97;;;6.70;99.90;;;;;;4985678;28;20228;-54
2024/02/18 08:48:50;;;;;;;24.63;11.87;;;6.70;99.90;;;;;;5002823;28;20221;-52
2024/02/18 08:51:17;;;;;;;24.50;13.70;;;6.80;99.90;;;;;;5008671;28;20208;-52
2024/02/18 08:53:44;;;;;;;30.77;14.90;;;6.80;99.90;;;;;;5001239;28;20326;-47
2024/02/18 08:56:11;;;;;;;20.73;11.63;;;6.80;99.90;;;;;;5020195;28;20238;-48
2024/02/18 08:58:39;;;;;;;26.17;12.57;;;6.80;99.90;;;;;;5009278;28;20940;-49
2024/02/18 09:01:06;;;;;;;24.57;13.53;;;6.80;99.90;;;;;;4991163;28;20278;-49
2024/02/18 09:03:33;;;;;;;25.43;12.93;;;6.80;99.90;;;;;;5007334;28;20203;-51
2024/02/18 09:06:01;;;;;;;24.30;12.80;;;6.90;99.90;;;;;;5003223;28;20246;-49
2024/02/18 09:08:28;;;;;;;24.63;14.83;;;6.90;99.90;;;;;;5009484;28;20200;-53
2024/02/18 09:10:55;;;;;;;25.67;14.23;;;6.90;99.90;;;;;;5010567;28;20291;-51
2024/02/18 09:13:23;;;;;;;25.27;14.03;;;7.00;99.90;;;;;;5019054;28;20192;-51
2024/02/18 09:15:51;;;;;;;23.73;13.63;;;7.00;99.90;;;;;;4987225;28;20267;-52
2024/02/18 09:18:18;;;;;;;26.83;14.47;;;7.10;99.90;;;;;;5019377;28;20227;-53
2024/02/18 09:20:45;;;;;;;28.83;16.00;;;7.10;99.90;;;;;;5004086;28;20212;-50
2024/02/18 09:23:13;;;;;;;23.83;13.73;;;7.10;99.90;;;;;;5012810;28;20250;-49
2024/02/18 09:25:40;;;;;;;27.23;13.70;;;7.10;99.90;;;;;;5004471;28;20224;-49
2024/02/18 09:28:08;;;;;;;24.50;14.10;;;7.10;99.90;;;;;;5018651;28;20200;-49
2024/02/18 09:30:35;;;;;;;27.13;14.90;;;7.20;99.90;;;;;;5010113;28;20201;-51
2024/02/18 09:33:03;;;;;;;24.33;13.40;;;7.20;99.90;;;;;;4992285;28;20207;-49
2024/02/18 09:35:29;;;;;;;30.80;14.10;;;7.30;99.90;;;;;;5002386;28;20827;-51
2024/02/18 09:37:57;;;;;;;27.60;14.83;;;7.30;99.90;;;;;;5012185;28;20220;-52
2024/02/18 09:40:25;;;;;;;26.70;14.67;;;7.40;99.90;;;;;;5017713;28;20521;-50
2024/02/18 09:42:54;;;;;;;27.27;15.23;;;7.40;99.90;;;;;;5014470;28;20235;-52
2024/02/18 09:45:25;;;;;;;26.37;14.83;;;7.40;99.90;;;;;;5011056;28;20235;-47
2024/02/18 09:47:53;;;;;;;27.93;14.57;;;7.50;99.90;;;;;;4995143;28;20216;-52
2024/02/18 09:50:21;;;;;;;28.10;15.07;;;7.50;99.90;;;;;;5012983;28;20196;-48
2024/02/18 09:52:49;;;;;;;25.50;14.60;;;7.60;99.90;;;;;;5016064;28;20208;-51
2024/02/18 09:55:17;;;;;;;27.40;15.27;;;7.60;99.90;;;;;;5012484;28;20887;-49
2024/02/18 09:57:45;;;;;;;26.00;13.80;;;7.60;99.90;;;;;;5014365;28;20204;-51
2024/02/18 10:00:13;;;;;;;32.20;16.00;;;7.70;99.90;;;;;;5013899;28;20274;-47
2024/02/18 10:02:42;;;;;;;28.33;14.73;;;7.70;99.90;;;;;;4998705;28;20318;-50
2024/02/18 10:05:10;;;;;;;29.67;15.10;;;7.80;99.90;;;;;;5011466;28;20228;-50
2024/02/18 10:07:37;;;;;;;31.47;16.30;;;7.80;99.90;;;;;;5012579;28;20203;-53
2024/02/18 10:10:07;;;;;;;35.07;16.43;;;7.80;99.90;;;;;;5014006;28;20212;-50
2024/02/18 10:12:34;;;;;;;27.27;14.80;;;7.90;99.90;;;;;;5018842;28;20224;-54
2024/02/18 10:15:04;;;;;;;29.13;15.43;;;7.90;99.90;;;;;;5014779;28;20196;-50
2024/02/18 10:17:32;;;;;;;29.80;15.07;;;7.90;99.90;;;;;;5005897;28;20200;-54
2024/02/18 10:19:59;;;;;;;29.93;15.30;;;7.90;99.90;;;;;;5000782;28;20207;-49
2024/02/18 10:22:26;;;;;;;26.77;15.97;;;8.00;99.90;;;;;;5017009;28;20322;-52
2024/02/18 10:24:54;;;;;;;28.80;15.00;;;8.00;99.90;;;;;;5002824;28;20255;-47
2024/02/18 10:27:21;;;;;;;30.70;15.70;;;8.00;99.90;;;;;;5023288;28;20531;-49
2024/02/18 10:29:49;;;;;;;27.23;16.13;;;8.10;99.90;;;;;;5010351;28;20639;-54
2024/02/18 10:32:18;;;;;;;27.90;15.27;;;8.10;99.90;;;;;;5009669;28;20728;-51
2024/02/18 10:34:45;;;;;;;27.87;15.87;;;8.10;99.90;;;;;;4995676;28;20208;-53
2024/02/18 10:37:18;;;;;;;28.33;15.33;;;8.10;99.90;;;;;;5014910;28;20207;-47
2024/02/18 10:39:50;;;;;;;26.77;16.50;;;8.20;99.90;;;;;;5005513;28;20299;-52
2024/02/18 10:42:19;;;;;;;27.07;16.97;;;8.20;99.90;;;;;;5017861;28;20228;-50
2024/02/18 10:44:48;;;;;;;27.30;16.87;;;8.20;99.90;;;;;;5010034;28;20195;-54
2024/02/18 10:47:17;;;;;;;25.83;15.37;;;8.20;99.90;;;;;;5011481;28;20208;-47
2024/02/18 10:49:50;;;;;;;29.47;15.37;;;8.30;99.90;;;;;;4993695;28;20200;-54
2024/02/18 10:52:28;;;;;;;29.87;15.93;;;8.30;99.90;;;;;;5017170;28;20208;-50
2024/02/18 10:55:03;;;;;;;26.70;15.43;;;8.40;99.90;;;;;;5003870;28;20309;-51
2024/02/18 10:57:35;;;;;;;30.63;17.13;;;8.40;99.90;;;;;;5013799;28;20329;-53
2024/02/18 11:00:05;;;;;;;26.87;15.70;;;8.50;99.90;;;;;;5009880;28;20313;-50
2024/02/18 11:02:41;;;;;;;27.13;16.30;;;8.50;99.90;;;;;;5016142;28;20200;-52
2024/02/18 11:05:09;;;;;;;32.27;16.13;;;8.50;99.90;;;;;;5019290;28;20303;-47
2024/02/18 11:07:37;;;;;;;28.83;15.50;;;8.60;99.90;;;;;;4990145;28;20215;-54
2024/02/18 11:10:06;;;;;;;30.93;15.90;;;8.60;99.90;;;;;;5005673;28;22941;-51
2024/02/18 11:12:33;;;;;;;29.07;15.20;;;8.60;99.90;;;;;;5013380;28;20204;-51
2024/02/18 11:15:04;;;;;;;26.33;14.07;;;8.60;99.90;;;;;;5019535;28;20257;-50
2024/02/18 11:17:31;;;;;;;27.17;15.20;;;8.70;99.90;;;;;;5013807;28;20224;-53
2024/02/18 11:20:00;;;;;;;23.40;14.20;;;8.70;99.90;;;;;;4998604;28;20192;-52
2024/02/18 11:22:28;;;;;;;26.80;14.90;;;8.70;99.90;;;;;;4997389;28;20220;-49
2024/02/18 11:24:59;;;;;;;24.93;14.77;;;8.70;99.90;;;;;;5006809;28;23559;-50
2024/02/18 11:27:26;;;;;;;25.57;13.53;;;8.70;99.90;;;;;;5021383;28;20517;-51
2024/02/18 11:29:53;;;;;;;26.27;14.90;;;8.80;99.90;;;;;;5010102;28;20282;-48
2024/02/18 11:32:23;;;;;;;22.80;13.77;;;8.80;99.90;;;;;;5012909;28;20721;-48
2024/02/18 11:34:50;;;;;;;27.23;14.07;;;8.80;99.90;;;;;;5009920;28;20204;-49
2024/02/18 11:37:32;;;;;;;22.83;13.37;;;8.80;99.90;;;;;;4991591;28;20693;-51
2024/02/18 11:39:59;;;;;;;23.70;12.87;;;8.80;99.90;;;;;;5012061;28;20298;-48
2024/02/18 11:42:27;;;;;;;25.53;13.67;;;8.80;99.90;;;;;;5021431;28;20200;-47
2024/02/18 11:45:05;;;;;;;20.53;12.93;;;8.80;99.90;;;;;;5011200;28;20903;-51
2024/02/18 11:47:33;;;;;;;22.13;13.23;;;8.80;99.90;;;;;;5017909;28;20678;-54
2024/02/18 11:50:00;;;;;;;22.93;11.40;;;8.80;99.90;;;;;;5004992;28;20209;-52
2024/02/18 11:52:27;;;;;;;18.80;11.90;;;8.90;99.90;;;;;;4995821;28;20215;-51
2024/02/18 11:54:55;;;;;;;19.23;11.47;;;8.90;99.90;;;;;;5020028;28;20191;-52
2024/02/18 11:57:22;;;;;;;20.50;11.03;;;8.90;99.90;;;;;;5013326;28;20204;-50
2024/02/18 11:59:49;;;;;;;15.47;10.50;;;8.90;99.90;;;;;;5008981;28;20250;-49
2024/02/18 12:02:20;;;;;;;16.70;9.50;;;8.90;99.90;;;;;;5022262;28;20210;-51
2024/02/18 12:04:47;;;;;;;14.80;8.63;;;9.00;99.90;;;;;;5001829;28;20211;-53
2024/02/18 12:07:16;;;;;;;13.83;8.20;;;9.00;99.90;;;;;;4996293;28;20338;-51
2024/02/18 12:09:43;;;;;;;12.10;8.07;;;9.00;99.90;;;;;;5010287;28;20208;-54
2024/02/18 12:12:11;;;;;;;11.73;8.23;;;9.10;99.90;;;;;;5011586;28;20356;-50
2024/02/18 12:14:50;;;;;;;13.67;8.50;;;9.10;99.90;;;;;;5011253;28;20203;-54
2024/02/18 12:17:17;;;;;;;13.57;8.67;;;9.20;99.90;;;;;;5014582;28;20196;-52
2024/02/18 12:19:44;;;;;;;17.00;8.20;;;9.20;99.90;;;;;;5009437;28;20223;-53
2024/02/18 12:22:19;;;;;;;10.80;7.23;;;9.20;99.90;;;;;;4980109;28;20212;-47
2024/02/18 12:24:46;;;;;;;14.87;7.43;;;9.20;99.90;;;;;;5018157;28;20241;-55
2024/02/18 12:27:14;;;;;;;10.67;8.00;;;9.20;99.90;;;;;;5010684;28;20651;-48
2024/02/18 12:29:41;;;;;;;11.77;8.10;;;9.20;99.90;;;;;;5010685;28;20262;-54
2024/02/18 12:32:08;;;;;;;11.00;8.20;;;9.20;99.90;;;;;;5016355;28;20261;-49
2024/02/18 12:34:35;;;;;;;12.87;7.97;;;9.20;99.90;;;;;;5013595;28;20192;-55
2024/02/18 12:37:02;;;;;;;17.97;7.27;;;9.30;99.90;;;;;;5002481;28;20301;-51
2024/02/18 12:39:28;;;;;;;12.43;7.67;;;9.20;99.90;;;;;;4993904;28;20278;-52
2024/02/18 12:41:55;;;;;;;11.20;7.53;;;9.20;99.90;;;;;;5017252;28;20913;-49
2024/02/18 12:44:26;;;;;;;13.60;7.50;;;9.20;99.90;;;;;;5010375;28;20290;-49